sensor_id;sensor_type;location;lat;lon;timestamp;temperature;humidity
36716;DHT22;22699;51.034;3.730;2022-07-18T00:01:43;22.60;61.40
36716;DHT22;22699;51.034;3.730;2022-07-18T00:04:11;22.60;61.70
36716;DHT22;22699;51.034;3.730;2022-07-18T00:06:37;22.50;61.80
36716;DHT22;22699;51.034;3.730;2022-07-18T00:09:04;22.50;62.00
36716;DHT22;22699;51.034;3.730;2022-07-18T00:11:30;22.40;62.00
36716;DHT22;22699;51.034;3.730;2022-07-18T00:13:57;22.40;62.10
36716;DHT22;22699;51.034;3.730;2022-07-18T00:16:22;22.50;62.30
36716;DHT22;22699;51.034;3.730;2022-07-18T00:18:49;22.50;62.50
36716;DHT22;22699;51.034;3.730;2022-07-18T00:21:16;22.50;62.90
36716;DHT22;22699;51.034;3.730;2022-07-18T00:23:42;22.50;62.70
36716;DHT22;22699;51.034;3.730;2022-07-18T00:26:07;22.50;62.60
36716;DHT22;22699;51.034;3.730;2022-07-18T00:28:33;22.50;62.90
36716;DHT22;22699;51.034;3.730;2022-07-18T00:30:59;22.50;62.90
36716;DHT22;22699;51.034;3.730;2022-07-18T00:33:24;22.30;63.30
36716;DHT22;22699;51.034;3.730;2022-07-18T00:35:50;22.30;63.70
36716;DHT22;22699;51.034;3.730;2022-07-18T00:38:16;22.20;63.60
36716;DHT22;22699;51.034;3.730;2022-07-18T00:40:42;22.20;63.80
36716;DHT22;22699;51.034;3.730;2022-07-18T00:43:11;22.10;63.90
36716;DHT22;22699;51.034;3.730;2022-07-18T00:45:46;22.10;63.90
36716;DHT22;22699;51.034;3.730;2022-07-18T00:48:12;22.10;63.80
36716;DHT22;22699;51.034;3.730;2022-07-18T00:50:38;22.10;63.90
36716;DHT22;22699;51.034;3.730;2022-07-18T00:53:06;22.10;63.90
36716;DHT22;22699;51.034;3.730;2022-07-18T00:55:33;22.00;64.00
36716;DHT22;22699;51.034;3.730;2022-07-18T00:58:00;21.90;64.00
36716;DHT22;22699;51.034;3.730;2022-07-18T01:00:27;22.00;64.00
36716;DHT22;22699;51.034;3.730;2022-07-18T01:03:11;21.90;64.00
36716;DHT22;22699;51.034;3.730;2022-07-18T01:05:36;21.90;64.10
36716;DHT22;22699;51.034;3.730;2022-07-18T01:08:02;21.90;64.10
36716;DHT22;22699;51.034;3.730;2022-07-18T01:10:29;21.90;64.10
36716;DHT22;22699;51.034;3.730;2022-07-18T01:12:55;22.00;64.10
36716;DHT22;22699;51.034;3.730;2022-07-18T01:15:21;21.80;64.20
36716;DHT22;22699;51.034;3.730;2022-07-18T01:17:46;21.80;64.40
36716;DHT22;22699;51.034;3.730;2022-07-18T01:20:12;21.70;64.40
36716;DHT22;22699;51.034;3.730;2022-07-18T01:22:40;21.80;64.60
36716;DHT22;22699;51.034;3.730;2022-07-18T01:25:08;21.70;64.70
36716;DHT22;22699;51.034;3.730;2022-07-18T01:27:34;21.70;64.60
36716;DHT22;22699;51.034;3.730;2022-07-18T01:30:00;21.70;64.80
36716;DHT22;22699;51.034;3.730;2022-07-18T01:32:26;21.60;64.80
36716;DHT22;22699;51.034;3.730;2022-07-18T01:34:52;21.60;64.80
36716;DHT22;22699;51.034;3.730;2022-07-18T01:37:18;21.60;64.80
36716;DHT22;22699;51.034;3.730;2022-07-18T01:39:45;21.60;64.90
36716;DHT22;22699;51.034;3.730;2022-07-18T01:42:13;21.50;64.90
36716;DHT22;22699;51.034;3.730;2022-07-18T01:44:42;21.60;64.90
36716;DHT22;22699;51.034;3.730;2022-07-18T01:47:09;21.60;64.90
36716;DHT22;22699;51.034;3.730;2022-07-18T01:49:36;21.50;64.90
36716;DHT22;22699;51.034;3.730;2022-07-18T01:52:03;21.50;64.90
36716;DHT22;22699;51.034;3.730;2022-07-18T01:54:31;21.40;64.90
36716;DHT22;22699;51.034;3.730;2022-07-18T01:56:58;21.50;64.90
36716;DHT22;22699;51.034;3.730;2022-07-18T01:59:24;21.50;64.80
36716;DHT22;22699;51.034;3.730;2022-07-18T02:01:50;21.50;64.90
36716;DHT22;22699;51.034;3.730;2022-07-18T02:04:16;21.50;65.10
36716;DHT22;22699;51.034;3.730;2022-07-18T02:06:42;21.40;65.50
36716;DHT22;22699;51.034;3.730;2022-07-18T02:09:09;21.40;65.60
36716;DHT22;22699;51.034;3.730;2022-07-18T02:11:35;21.40;65.80
36716;DHT22;22699;51.034;3.730;2022-07-18T02:14:03;21.30;65.90
36716;DHT22;22699;51.034;3.730;2022-07-18T02:16:29;21.20;66.00
36716;DHT22;22699;51.034;3.730;2022-07-18T02:18:55;21.20;66.10
36716;DHT22;22699;51.034;3.730;2022-07-18T02:21:21;21.20;66.20
36716;DHT22;22699;51.034;3.730;2022-07-18T02:23:47;21.20;66.30
36716;DHT22;22699;51.034;3.730;2022-07-18T02:26:13;21.10;66.40
36716;DHT22;22699;51.034;3.730;2022-07-18T02:28:39;21.00;66.60
36716;DHT22;22699;51.034;3.730;2022-07-18T02:31:05;21.00;66.90
36716;DHT22;22699;51.034;3.730;2022-07-18T02:33:32;21.10;66.80
36716;DHT22;22699;51.034;3.730;2022-07-18T02:35:57;21.10;66.90
36716;DHT22;22699;51.034;3.730;2022-07-18T02:38:23;21.00;67.10
36716;DHT22;22699;51.034;3.730;2022-07-18T02:40:49;21.20;67.00
36716;DHT22;22699;51.034;3.730;2022-07-18T02:43:14;21.20;66.90
36716;DHT22;22699;51.034;3.730;2022-07-18T02:45:41;21.10;66.80
36716;DHT22;22699;51.034;3.730;2022-07-18T02:48:07;21.00;67.30
36716;DHT22;22699;51.034;3.730;2022-07-18T02:50:33;20.90;67.20
36716;DHT22;22699;51.034;3.730;2022-07-18T02:52:59;21.00;67.00
36716;DHT22;22699;51.034;3.730;2022-07-18T02:55:24;20.90;66.90
36716;DHT22;22699;51.034;3.730;2022-07-18T02:57:50;20.90;67.00
36716;DHT22;22699;51.034;3.730;2022-07-18T03:00:17;20.80;67.20
36716;DHT22;22699;51.034;3.730;2022-07-18T03:02:45;20.80;67.40
36716;DHT22;22699;51.034;3.730;2022-07-18T03:05:11;20.60;67.40
36716;DHT22;22699;51.034;3.730;2022-07-18T03:07:37;20.70;67.60
36716;DHT22;22699;51.034;3.730;2022-07-18T03:10:05;20.70;67.20
36716;DHT22;22699;51.034;3.730;2022-07-18T03:12:32;20.60;67.40
36716;DHT22;22699;51.034;3.730;2022-07-18T03:14:58;20.50;67.90
36716;DHT22;22699;51.034;3.730;2022-07-18T03:17:24;20.40;68.40
36716;DHT22;22699;51.034;3.730;2022-07-18T03:19:50;20.30;68.90
36716;DHT22;22699;51.034;3.730;2022-07-18T03:22:16;20.30;69.10
36716;DHT22;22699;51.034;3.730;2022-07-18T03:24:41;20.30;69.20
36716;DHT22;22699;51.034;3.730;2022-07-18T03:27:07;20.30;69.30
36716;DHT22;22699;51.034;3.730;2022-07-18T03:29:33;20.30;69.50
36716;DHT22;22699;51.034;3.730;2022-07-18T03:31:59;20.10;69.60
36716;DHT22;22699;51.034;3.730;2022-07-18T03:34:24;20.10;70.00
36716;DHT22;22699;51.034;3.730;2022-07-18T03:36:50;20.20;70.10
36716;DHT22;22699;51.034;3.730;2022-07-18T03:39:16;20.20;69.70
36716;DHT22;22699;51.034;3.730;2022-07-18T03:41:42;20.20;69.50
36716;DHT22;22699;51.034;3.730;2022-07-18T03:44:08;20.30;69.30
36716;DHT22;22699;51.034;3.730;2022-07-18T03:46:34;20.30;69.60
36716;DHT22;22699;51.034;3.730;2022-07-18T03:49:00;20.30;68.90
36716;DHT22;22699;51.034;3.730;2022-07-18T03:51:26;20.40;68.60
36716;DHT22;22699;51.034;3.730;2022-07-18T03:53:52;20.50;68.70
36716;DHT22;22699;51.034;3.730;2022-07-18T03:56:17;20.40;68.70
36716;DHT22;22699;51.034;3.730;2022-07-18T03:58:43;20.20;69.10
36716;DHT22;22699;51.034;3.730;2022-07-18T04:01:09;20.10;69.30
36716;DHT22;22699;51.034;3.730;2022-07-18T04:03:35;20.10;69.40
36716;DHT22;22699;51.034;3.730;2022-07-18T04:06:03;20.10;69.70
36716;DHT22;22699;51.034;3.730;2022-07-18T04:08:29;20.00;69.90
36716;DHT22;22699;51.034;3.730;2022-07-18T04:10:55;20.10;70.00
36716;DHT22;22699;51.034;3.730;2022-07-18T04:13:20;20.00;70.00
36716;DHT22;22699;51.034;3.730;2022-07-18T04:15:47;20.00;70.00
36716;DHT22;22699;51.034;3.730;2022-07-18T04:18:13;20.00;70.00
36716;DHT22;22699;51.034;3.730;2022-07-18T04:20:38;20.00;70.10
36716;DHT22;22699;51.034;3.730;2022-07-18T04:23:07;19.90;70.20
36716;DHT22;22699;51.034;3.730;2022-07-18T04:25:37;20.00;70.20
36716;DHT22;22699;51.034;3.730;2022-07-18T04:28:05;20.00;70.20
36716;DHT22;22699;51.034;3.730;2022-07-18T04:30:32;20.10;70.00
36716;DHT22;22699;51.034;3.730;2022-07-18T04:33:04;20.20;69.70
36716;DHT22;22699;51.034;3.730;2022-07-18T04:35:30;20.10;69.50
36716;DHT22;22699;51.034;3.730;2022-07-18T04:37:57;20.20;69.80
36716;DHT22;22699;51.034;3.730;2022-07-18T04:40:25;20.10;69.90
36716;DHT22;22699;51.034;3.730;2022-07-18T04:43:08;20.20;69.50
36716;DHT22;22699;51.034;3.730;2022-07-18T04:45:41;20.30;69.80
36716;DHT22;22699;51.034;3.730;2022-07-18T04:48:09;20.40;69.10
36716;DHT22;22699;51.034;3.730;2022-07-18T04:50:37;20.40;69.00
36716;DHT22;22699;51.034;3.730;2022-07-18T04:53:05;20.40;69.00
36716;DHT22;22699;51.034;3.730;2022-07-18T04:55:31;20.50;68.80
36716;DHT22;22699;51.034;3.730;2022-07-18T04:57:59;20.50;68.60
36716;DHT22;22699;51.034;3.730;2022-07-18T05:00:26;20.50;68.60
36716;DHT22;22699;51.034;3.730;2022-07-18T05:02:56;20.60;68.50
36716;DHT22;22699;51.034;3.730;2022-07-18T05:05:25;20.60;68.50
36716;DHT22;22699;51.034;3.730;2022-07-18T05:07:52;20.40;68.70
36716;DHT22;22699;51.034;3.730;2022-07-18T05:10:21;20.30;69.30
36716;DHT22;22699;51.034;3.730;2022-07-18T05:12:52;20.20;69.70
36716;DHT22;22699;51.034;3.730;2022-07-18T05:15:24;20.20;70.20
36716;DHT22;22699;51.034;3.730;2022-07-18T05:17:51;20.30;70.40
36716;DHT22;22699;51.034;3.730;2022-07-18T05:20:21;20.20;70.10
36716;DHT22;22699;51.034;3.730;2022-07-18T05:22:47;20.20;70.00
36716;DHT22;22699;51.034;3.730;2022-07-18T05:25:14;20.10;70.30
36716;DHT22;22699;51.034;3.730;2022-07-18T05:27:52;20.00;70.90
36716;DHT22;22699;51.034;3.730;2022-07-18T05:30:18;20.10;71.40
36716;DHT22;22699;51.034;3.730;2022-07-18T05:32:45;20.20;71.00
36716;DHT22;22699;51.034;3.730;2022-07-18T05:35:14;20.30;71.20
36716;DHT22;22699;51.034;3.730;2022-07-18T05:37:41;20.40;70.80
36716;DHT22;22699;51.034;3.730;2022-07-18T05:40:11;20.40;70.70
36716;DHT22;22699;51.034;3.730;2022-07-18T05:42:40;20.50;70.40
36716;DHT22;22699;51.034;3.730;2022-07-18T05:45:07;20.60;69.80
36716;DHT22;22699;51.034;3.730;2022-07-18T05:47:33;20.70;69.60
36716;DHT22;22699;51.034;3.730;2022-07-18T05:50:03;20.70;69.50
36716;DHT22;22699;51.034;3.730;2022-07-18T05:52:30;20.70;69.30
36716;DHT22;22699;51.034;3.730;2022-07-18T05:54:55;20.90;69.00
36716;DHT22;22699;51.034;3.730;2022-07-18T05:57:21;21.00;68.60
36716;DHT22;22699;51.034;3.730;2022-07-18T05:59:47;21.20;68.20
36716;DHT22;22699;51.034;3.730;2022-07-18T06:02:12;21.30;67.80
36716;DHT22;22699;51.034;3.730;2022-07-18T06:04:38;21.50;67.40
36716;DHT22;22699;51.034;3.730;2022-07-18T06:07:05;21.60;66.90
36716;DHT22;22699;51.034;3.730;2022-07-18T06:09:30;21.80;66.80
36716;DHT22;22699;51.034;3.730;2022-07-18T06:12:00;22.00;66.20
36716;DHT22;22699;51.034;3.730;2022-07-18T06:14:29;22.30;65.20
36716;DHT22;22699;51.034;3.730;2022-07-18T06:16:55;22.60;63.70
36716;DHT22;22699;51.034;3.730;2022-07-18T06:19:20;22.80;63.20
36716;DHT22;22699;51.034;3.730;2022-07-18T06:21:46;23.30;62.10
36716;DHT22;22699;51.034;3.730;2022-07-18T06:24:12;23.50;61.00
36716;DHT22;22699;51.034;3.730;2022-07-18T06:26:38;23.70;60.40
36716;DHT22;22699;51.034;3.730;2022-07-18T06:29:03;23.80;59.50
36716;DHT22;22699;51.034;3.730;2022-07-18T06:31:29;24.00;58.60
36716;DHT22;22699;51.034;3.730;2022-07-18T06:33:54;24.10;57.50
36716;DHT22;22699;51.034;3.730;2022-07-18T06:36:20;24.00;57.30
36716;DHT22;22699;51.034;3.730;2022-07-18T06:38:50;24.10;57.10
36716;DHT22;22699;51.034;3.730;2022-07-18T06:41:16;23.90;57.20
36716;DHT22;22699;51.034;3.730;2022-07-18T06:43:41;23.90;57.60
36716;DHT22;22699;51.034;3.730;2022-07-18T06:46:07;23.90;57.30
36716;DHT22;22699;51.034;3.730;2022-07-18T06:48:33;23.90;57.40
36716;DHT22;22699;51.034;3.730;2022-07-18T06:51:01;23.80;57.90
36716;DHT22;22699;51.034;3.730;2022-07-18T06:53:27;23.90;58.00
36716;DHT22;22699;51.034;3.730;2022-07-18T06:55:53;24.10;57.50
36716;DHT22;22699;51.034;3.730;2022-07-18T06:58:19;24.20;57.20
36716;DHT22;22699;51.034;3.730;2022-07-18T07:00:44;24.30;56.60
36716;DHT22;22699;51.034;3.730;2022-07-18T07:03:10;24.50;56.30
36716;DHT22;22699;51.034;3.730;2022-07-18T07:05:35;24.70;56.10
36716;DHT22;22699;51.034;3.730;2022-07-18T07:08:01;24.70;56.30
36716;DHT22;22699;51.034;3.730;2022-07-18T07:10:26;25.00;55.60
36716;DHT22;22699;51.034;3.730;2022-07-18T07:12:53;25.00;55.40
36716;DHT22;22699;51.034;3.730;2022-07-18T07:15:20;25.10;55.10
36716;DHT22;22699;51.034;3.730;2022-07-18T07:17:47;25.00;55.10
36716;DHT22;22699;51.034;3.730;2022-07-18T07:20:13;25.10;55.10
36716;DHT22;22699;51.034;3.730;2022-07-18T07:22:49;25.30;55.30
36716;DHT22;22699;51.034;3.730;2022-07-18T07:25:16;25.30;55.00
36716;DHT22;22699;51.034;3.730;2022-07-18T07:27:43;25.80;54.50
36716;DHT22;22699;51.034;3.730;2022-07-18T07:30:11;27.40;53.00
36716;DHT22;22699;51.034;3.730;2022-07-18T07:32:40;29.50;50.10
36716;DHT22;22699;51.034;3.730;2022-07-18T07:35:07;31.70;46.80
36716;DHT22;22699;51.034;3.730;2022-07-18T07:37:36;33.70;44.50
36716;DHT22;22699;51.034;3.730;2022-07-18T07:40:02;34.90;42.40
36716;DHT22;22699;51.034;3.730;2022-07-18T07:42:29;36.40;41.10
36716;DHT22;22699;51.034;3.730;2022-07-18T07:44:54;37.70;40.00
36716;DHT22;22699;51.034;3.730;2022-07-18T07:47:20;38.70;38.90
36716;DHT22;22699;51.034;3.730;2022-07-18T07:49:45;39.80;37.80
36716;DHT22;22699;51.034;3.730;2022-07-18T07:52:11;40.80;36.80
36716;DHT22;22699;51.034;3.730;2022-07-18T07:54:39;41.90;36.00
36716;DHT22;22699;51.034;3.730;2022-07-18T07:57:05;43.00;35.30
36716;DHT22;22699;51.034;3.730;2022-07-18T07:59:30;43.20;34.80
36716;DHT22;22699;51.034;3.730;2022-07-18T08:01:58;43.90;34.50
36716;DHT22;22699;51.034;3.730;2022-07-18T08:04:23;44.20;33.90
36716;DHT22;22699;51.034;3.730;2022-07-18T08:06:49;44.30;33.60
36716;DHT22;22699;51.034;3.730;2022-07-18T08:09:14;44.40;33.70
36716;DHT22;22699;51.034;3.730;2022-07-18T08:11:40;44.70;33.60
36716;DHT22;22699;51.034;3.730;2022-07-18T08:14:05;45.60;33.40
36716;DHT22;22699;51.034;3.730;2022-07-18T08:16:31;46.00;32.80
36716;DHT22;22699;51.034;3.730;2022-07-18T08:18:56;46.60;32.60
36716;DHT22;22699;51.034;3.730;2022-07-18T08:21:22;47.50;32.80
36716;DHT22;22699;51.034;3.730;2022-07-18T08:23:48;47.80;32.10
36716;DHT22;22699;51.034;3.730;2022-07-18T08:26:14;47.20;31.90
36716;DHT22;22699;51.034;3.730;2022-07-18T08:28:41;48.20;32.00
36716;DHT22;22699;51.034;3.730;2022-07-18T08:31:07;48.30;31.70
36716;DHT22;22699;51.034;3.730;2022-07-18T08:33:33;49.10;31.40
36716;DHT22;22699;51.034;3.730;2022-07-18T08:36:00;49.30;30.70
36716;DHT22;22699;51.034;3.730;2022-07-18T08:38:26;48.80;30.90
36716;DHT22;22699;51.034;3.730;2022-07-18T08:40:53;49.70;30.70
36716;DHT22;22699;51.034;3.730;2022-07-18T08:43:19;50.30;30.70
36716;DHT22;22699;51.034;3.730;2022-07-18T08:45:47;50.00;30.20
36716;DHT22;22699;51.034;3.730;2022-07-18T08:48:16;49.90;30.30
36716;DHT22;22699;51.034;3.730;2022-07-18T08:50:44;50.90;30.40
36716;DHT22;22699;51.034;3.730;2022-07-18T08:53:11;52.20;29.60
36716;DHT22;22699;51.034;3.730;2022-07-18T08:55:37;51.90;29.40
36716;DHT22;22699;51.034;3.730;2022-07-18T08:58:03;51.90;29.50
36716;DHT22;22699;51.034;3.730;2022-07-18T09:00:28;51.40;29.40
36716;DHT22;22699;51.034;3.730;2022-07-18T09:03:02;52.20;29.40
36716;DHT22;22699;51.034;3.730;2022-07-18T09:05:30;51.90;29.60
36716;DHT22;22699;51.034;3.730;2022-07-18T09:08:16;52.00;29.40
36716;DHT22;22699;51.034;3.730;2022-07-18T09:10:49;51.90;29.50
36716;DHT22;22699;51.034;3.730;2022-07-18T09:13:21;52.40;29.40
36716;DHT22;22699;51.034;3.730;2022-07-18T09:16:06;53.40;29.30
36716;DHT22;22699;51.034;3.730;2022-07-18T09:18:44;54.70;28.90
36716;DHT22;22699;51.034;3.730;2022-07-18T09:21:12;55.70;28.60
36716;DHT22;22699;51.034;3.730;2022-07-18T09:23:39;55.40;28.30
36716;DHT22;22699;51.034;3.730;2022-07-18T09:26:05;55.00;28.40
36716;DHT22;22699;51.034;3.730;2022-07-18T09:28:52;55.10;28.40
36716;DHT22;22699;51.034;3.730;2022-07-18T09:31:20;54.40;28.40
36716;DHT22;22699;51.034;3.730;2022-07-18T09:33:53;54.40;28.60
36716;DHT22;22699;51.034;3.730;2022-07-18T09:36:19;55.50;28.40
36716;DHT22;22699;51.034;3.730;2022-07-18T09:38:45;55.40;28.20
36716;DHT22;22699;51.034;3.730;2022-07-18T09:41:11;56.00;28.10
36716;DHT22;22699;51.034;3.730;2022-07-18T09:43:37;57.10;27.90
36716;DHT22;22699;51.034;3.730;2022-07-18T09:46:04;56.60;27.70
36716;DHT22;22699;51.034;3.730;2022-07-18T09:48:30;55.50;27.80
36716;DHT22;22699;51.034;3.730;2022-07-18T09:51:06;54.70;27.90
36716;DHT22;22699;51.034;3.730;2022-07-18T09:53:38;54.30;28.10
36716;DHT22;22699;51.034;3.730;2022-07-18T09:56:23;52.30;28.50
36716;DHT22;22699;51.034;3.730;2022-07-18T09:58:52;51.70;28.70
36716;DHT22;22699;51.034;3.730;2022-07-18T10:01:18;51.00;28.70
36716;DHT22;22699;51.034;3.730;2022-07-18T10:03:44;50.80;28.80
36716;DHT22;22699;51.034;3.730;2022-07-18T10:06:09;50.10;28.90
36716;DHT22;22699;51.034;3.730;2022-07-18T10:08:35;49.00;29.00
36716;DHT22;22699;51.034;3.730;2022-07-18T10:11:03;47.90;29.40
36716;DHT22;22699;51.034;3.730;2022-07-18T10:13:31;47.50;29.80
36716;DHT22;22699;51.034;3.730;2022-07-18T10:15:57;48.30;29.60
36716;DHT22;22699;51.034;3.730;2022-07-18T10:18:26;45.50;30.20
36716;DHT22;22699;51.034;3.730;2022-07-18T10:20:58;43.10;31.10
36716;DHT22;22699;51.034;3.730;2022-07-18T10:23:43;41.30;32.50
36716;DHT22;22699;51.034;3.730;2022-07-18T10:26:17;39.40;33.80
36716;DHT22;22699;51.034;3.730;2022-07-18T10:34:10;37.40;35.80
36716;DHT22;22699;51.034;3.730;2022-07-18T10:36:38;36.50;35.90
36716;DHT22;22699;51.034;3.730;2022-07-18T10:39:12;35.70;36.80
36716;DHT22;22699;51.034;3.730;2022-07-18T10:57:42;33.90;38.10
36716;DHT22;22699;51.034;3.730;2022-07-18T11:00:13;33.70;38.10
36716;DHT22;22699;51.034;3.730;2022-07-18T11:02:47;33.50;38.50
36716;DHT22;22699;51.034;3.730;2022-07-18T11:21:18;33.40;38.70
36716;DHT22;22699;51.034;3.730;2022-07-18T11:23:46;33.20;38.90
36716;DHT22;22699;51.034;3.730;2022-07-18T11:26:19;32.90;39.00
36716;DHT22;22699;51.034;3.730;2022-07-18T11:28:49;33.10;38.00
36716;DHT22;22699;51.034;3.730;2022-07-18T11:31:21;33.10;38.30
36716;DHT22;22699;51.034;3.730;2022-07-18T11:33:49;32.90;38.70
36716;DHT22;22699;51.034;3.730;2022-07-18T11:36:17;32.70;39.60
36716;DHT22;22699;51.034;3.730;2022-07-18T11:41:15;33.20;39.20
36716;DHT22;22699;51.034;3.730;2022-07-18T11:43:42;33.00;39.50
36716;DHT22;22699;51.034;3.730;2022-07-18T11:46:11;32.90;39.40
36716;DHT22;22699;51.034;3.730;2022-07-18T11:48:39;32.70;39.20
36716;DHT22;22699;51.034;3.730;2022-07-18T11:51:15;32.50;39.60
36716;DHT22;22699;51.034;3.730;2022-07-18T11:53:49;32.60;40.00
36716;DHT22;22699;51.034;3.730;2022-07-18T11:56:16;32.70;39.40
36716;DHT22;22699;51.034;3.730;2022-07-18T11:58:44;33.00;38.80
36716;DHT22;22699;51.034;3.730;2022-07-18T12:01:11;33.40;38.30
36716;DHT22;22699;51.034;3.730;2022-07-18T12:03:40;33.50;38.60
36716;DHT22;22699;51.034;3.730;2022-07-18T12:08:41;33.30;38.30
36716;DHT22;22699;51.034;3.730;2022-07-18T12:18:54;33.30;38.00
36716;DHT22;22699;51.034;3.730;2022-07-18T12:21:20;33.30;38.20
36716;DHT22;22699;51.034;3.730;2022-07-18T12:23:46;33.50;38.10
36716;DHT22;22699;51.034;3.730;2022-07-18T12:26:31;33.20;38.20
36716;DHT22;22699;51.034;3.730;2022-07-18T12:29:08;33.30;37.70
36716;DHT22;22699;51.034;3.730;2022-07-18T12:31:45;33.10;38.00
36716;DHT22;22699;51.034;3.730;2022-07-18T12:34:13;33.00;38.00
36716;DHT22;22699;51.034;3.730;2022-07-18T12:36:57;33.10;37.90
36716;DHT22;22699;51.034;3.730;2022-07-18T12:39:35;33.20;37.60
36716;DHT22;22699;51.034;3.730;2022-07-18T12:42:06;33.20;37.20
36716;DHT22;22699;51.034;3.730;2022-07-18T12:44:33;33.30;37.20
36716;DHT22;22699;51.034;3.730;2022-07-18T12:47:02;33.40;37.90
36716;DHT22;22699;51.034;3.730;2022-07-18T12:49:29;33.20;38.60
36716;DHT22;22699;51.034;3.730;2022-07-18T12:52:17;33.20;38.10
36716;DHT22;22699;51.034;3.730;2022-07-18T12:54:44;33.40;37.80
36716;DHT22;22699;51.034;3.730;2022-07-18T12:57:13;33.50;37.50
36716;DHT22;22699;51.034;3.730;2022-07-18T12:59:43;33.50;37.10
36716;DHT22;22699;51.034;3.730;2022-07-18T13:04:37;33.70;37.00
36716;DHT22;22699;51.034;3.730;2022-07-18T13:07:11;33.80;37.00
36716;DHT22;22699;51.034;3.730;2022-07-18T13:09:37;33.90;36.80
36716;DHT22;22699;51.034;3.730;2022-07-18T13:12:03;33.80;36.80
36716;DHT22;22699;51.034;3.730;2022-07-18T13:14:37;33.60;36.80
36716;DHT22;22699;51.034;3.730;2022-07-18T13:17:08;34.10;36.70
36716;DHT22;22699;51.034;3.730;2022-07-18T13:19:35;33.90;36.80
36716;DHT22;22699;51.034;3.730;2022-07-18T13:22:01;33.80;37.00
36716;DHT22;22699;51.034;3.730;2022-07-18T13:24:27;33.80;36.90
36716;DHT22;22699;51.034;3.730;2022-07-18T13:26:55;33.80;37.50
36716;DHT22;22699;51.034;3.730;2022-07-18T13:29:24;33.70;37.40
36716;DHT22;22699;51.034;3.730;2022-07-18T13:31:51;33.90;36.70
36716;DHT22;22699;51.034;3.730;2022-07-18T13:34:19;34.20;36.00
36716;DHT22;22699;51.034;3.730;2022-07-18T13:36:50;33.90;36.50
36716;DHT22;22699;51.034;3.730;2022-07-18T13:39:17;33.60;36.40
36716;DHT22;22699;51.034;3.730;2022-07-18T13:41:48;33.40;37.20
36716;DHT22;22699;51.034;3.730;2022-07-18T13:52:24;34.10;36.20
36716;DHT22;22699;51.034;3.730;2022-07-18T13:54:52;34.40;35.70
36716;DHT22;22699;51.034;3.730;2022-07-18T13:57:21;34.20;35.60
36716;DHT22;22699;51.034;3.730;2022-07-18T13:59:47;33.60;36.20
36716;DHT22;22699;51.034;3.730;2022-07-18T14:02:14;33.70;37.00
36716;DHT22;22699;51.034;3.730;2022-07-18T14:04:43;33.80;36.40
36716;DHT22;22699;51.034;3.730;2022-07-18T14:07:10;33.80;36.40
36716;DHT22;22699;51.034;3.730;2022-07-18T14:09:37;33.70;36.50
36716;DHT22;22699;51.034;3.730;2022-07-18T14:12:05;33.60;37.20
36716;DHT22;22699;51.034;3.730;2022-07-18T14:14:30;34.00;36.50
36716;DHT22;22699;51.034;3.730;2022-07-18T14:17:02;33.90;36.70
36716;DHT22;22699;51.034;3.730;2022-07-18T14:19:29;33.90;35.90
36716;DHT22;22699;51.034;3.730;2022-07-18T14:21:58;34.10;36.00
36716;DHT22;22699;51.034;3.730;2022-07-18T14:24:26;34.40;35.80
36716;DHT22;22699;51.034;3.730;2022-07-18T14:26:54;34.50;35.60
36716;DHT22;22699;51.034;3.730;2022-07-18T14:29:20;34.50;35.60
36716;DHT22;22699;51.034;3.730;2022-07-18T14:31:48;34.50;35.00
36716;DHT22;22699;51.034;3.730;2022-07-18T14:34:14;34.50;35.10
36716;DHT22;22699;51.034;3.730;2022-07-18T14:36:39;35.00;34.50
36716;DHT22;22699;51.034;3.730;2022-07-18T14:39:06;34.70;34.20
36716;DHT22;22699;51.034;3.730;2022-07-18T14:41:35;34.60;34.50
36716;DHT22;22699;51.034;3.730;2022-07-18T14:44:10;34.70;34.40
36716;DHT22;22699;51.034;3.730;2022-07-18T14:46:37;34.40;34.40
36716;DHT22;22699;51.034;3.730;2022-07-18T14:49:02;34.60;34.40
36716;DHT22;22699;51.034;3.730;2022-07-18T14:51:31;34.40;34.60
36716;DHT22;22699;51.034;3.730;2022-07-18T14:53:57;34.30;35.30
36716;DHT22;22699;51.034;3.730;2022-07-18T14:56:22;34.30;34.90
36716;DHT22;22699;51.034;3.730;2022-07-18T14:58:51;34.00;35.10
36716;DHT22;22699;51.034;3.730;2022-07-18T15:01:19;33.80;35.40
36716;DHT22;22699;51.034;3.730;2022-07-18T15:03:46;34.10;35.70
36716;DHT22;22699;51.034;3.730;2022-07-18T15:06:13;34.30;34.90
36716;DHT22;22699;51.034;3.730;2022-07-18T15:08:41;34.10;34.90
36716;DHT22;22699;51.034;3.730;2022-07-18T15:11:18;34.40;34.50
36716;DHT22;22699;51.034;3.730;2022-07-18T15:13:52;34.40;34.70
36716;DHT22;22699;51.034;3.730;2022-07-18T15:16:18;34.40;34.80
36716;DHT22;22699;51.034;3.730;2022-07-18T15:18:46;34.60;34.60
36716;DHT22;22699;51.034;3.730;2022-07-18T15:21:14;34.50;34.50
36716;DHT22;22699;51.034;3.730;2022-07-18T15:23:41;34.30;35.00
36716;DHT22;22699;51.034;3.730;2022-07-18T15:26:07;34.40;35.00
36716;DHT22;22699;51.034;3.730;2022-07-18T15:28:35;34.50;35.40
36716;DHT22;22699;51.034;3.730;2022-07-18T15:31:02;34.10;35.20
36716;DHT22;22699;51.034;3.730;2022-07-18T15:33:50;34.50;34.80
36716;DHT22;22699;51.034;3.730;2022-07-18T15:36:15;34.50;35.10
36716;DHT22;22699;51.034;3.730;2022-07-18T15:38:47;34.40;35.30
36716;DHT22;22699;51.034;3.730;2022-07-18T15:41:15;34.60;35.30
36716;DHT22;22699;51.034;3.730;2022-07-18T15:43:47;34.80;35.10
36716;DHT22;22699;51.034;3.730;2022-07-18T15:46:15;34.90;35.20
36716;DHT22;22699;51.034;3.730;2022-07-18T15:48:46;34.80;35.40
36716;DHT22;22699;51.034;3.730;2022-07-18T15:51:21;34.60;35.10
36716;DHT22;22699;51.034;3.730;2022-07-18T15:53:51;34.30;35.20
36716;DHT22;22699;51.034;3.730;2022-07-18T15:56:17;34.20;35.60
36716;DHT22;22699;51.034;3.730;2022-07-18T15:58:46;34.10;35.40
36716;DHT22;22699;51.034;3.730;2022-07-18T16:01:15;34.10;35.50
36716;DHT22;22699;51.034;3.730;2022-07-18T16:03:44;34.00;35.90
36716;DHT22;22699;51.034;3.730;2022-07-18T16:06:11;34.10;36.10
36716;DHT22;22699;51.034;3.730;2022-07-18T16:08:36;34.50;35.70
36716;DHT22;22699;51.034;3.730;2022-07-18T16:11:08;34.70;35.30
36716;DHT22;22699;51.034;3.730;2022-07-18T16:13:40;35.00;35.20
36716;DHT22;22699;51.034;3.730;2022-07-18T16:16:06;35.00;35.30
36716;DHT22;22699;51.034;3.730;2022-07-18T16:18:35;34.30;35.30
36716;DHT22;22699;51.034;3.730;2022-07-18T16:21:01;34.20;35.70
36716;DHT22;22699;51.034;3.730;2022-07-18T16:23:30;34.00;35.60
36716;DHT22;22699;51.034;3.730;2022-07-18T16:25:58;34.30;35.60
36716;DHT22;22699;51.034;3.730;2022-07-18T16:28:27;34.40;35.50
36716;DHT22;22699;51.034;3.730;2022-07-18T16:30:54;34.50;35.40
36716;DHT22;22699;51.034;3.730;2022-07-18T16:33:20;34.60;35.30
36716;DHT22;22699;51.034;3.730;2022-07-18T16:35:48;34.60;35.60